Tancred — LALX4 — position and weather

sailwx.info

Track history (hours):
 
Tides and Currents Weather Stations Pressure Air Temp Water Temp Dewpoint Dewpoint Depression Visibility Wind Speed Wind Dir Waves Ship Positions

Tancred

Last reported at 2014-Oct-20 20:32 UTC. Time now 2014-Oct-26 04:23 UTC.
Position N 01°12' E 103°52'.

Length 190 m; draft 8.8 m.

Type: Cargo ship. MMSI: 258787000.

Date/timePositionNaut miles runAvg speedWind from/ knotsBaromVisibWave heightAir tempDewpointWater temp
2014-Oct-20 20:32N 01°12' E 103°52'6 5.0
2014-Oct-20 19:18N 01°17' E 103°55'0 0.0
2014-Oct-20 18:33N 01°17' E 103°55'0 0.0
2014-Oct-20 17:30N 01°17' E 103°55'0 0.0
2014-Oct-20 16:30N 01°17' E 103°55'0 0.0
2014-Oct-20 15:30N 01°17' E 103°55'0 0.0
2014-Oct-20 14:24N 01°17' E 103°55'0 0.0
2014-Oct-20 13:33N 01°17' E 103°55'0 0.0
2014-Oct-20 12:21N 01°17' E 103°55'0 0.1
2014-Oct-20 11:30N 01°17' E 103°55'0 0.0
2014-Oct-20 10:24N 01°17' E 103°55'0 0.1
2014-Oct-20 09:24N 01°17' E 103°55'0 0.0
2014-Oct-20 08:24N 01°17' E 103°55'0 0.0
2014-Oct-20 07:33N 01°17' E 103°55'0 0.0
2014-Oct-20 06:30N 01°17' E 103°55'0 0.0
2014-Oct-20 05:30N 01°17' E 103°55'0 0.0
2014-Oct-20 04:21N 01°17' E 103°55'0 0.0
2014-Oct-20 03:24N 01°17' E 103°55'0 0.0
2014-Oct-20 02:33N 01°17' E 103°55'0 0.0
2014-Oct-20 01:18N 01°17' E 103°55'0 0.0
2014-Oct-20 00:15N 01°17' E 103°55'0 0.0
2014-Oct-19 23:18N 01°17' E 103°55'0 0.0
2014-Oct-19 22:28N 01°17' E 103°55'2 2.5
2014-Oct-19 21:33N 01°15' E 103°57'8 7.3
2014-Oct-19 20:31N 01°16' E 104°05'  
2014-Oct-11 12:10N 34°58' E 139°41'813.3
2014-Oct-11 11:33N 35°06' E 139°44'9 8.6
2014-Oct-11 10:33N 35°14' E 139°46'1211.8
2014-Oct-11 09:33N 35°26' E 139°43'2 2.0
2014-Oct-11 08:32N 35°27' E 139°41'0 0.0
2014-Oct-11 07:32N 35°27' E 139°41'0 0.0
2014-Oct-11 06:32N 35°27' E 139°41'0 0.0
2014-Oct-11 05:32N 35°27' E 139°41'0 0.0
2014-Oct-11 04:32N 35°27' E 139°41'0 0.0
2014-Oct-11 03:32N 35°27' E 139°41'0 0.0
2014-Oct-11 02:32N 35°27' E 139°41'0 0.0
2014-Oct-11 01:32N 35°27' E 139°41'0 0.0
2014-Oct-11 00:32N 35°27' E 139°41'0 0.0
2014-Oct-10 23:32N 35°27' E 139°41'0 0.0
2014-Oct-10 22:32N 35°27' E 139°41'3 2.9
2014-Oct-10 21:33N 35°26' E 139°44'0 0.1
2014-Oct-10 20:34N 35°26' E 139°44'  
Track history (hours):
 
Tides and Currents Weather Stations Pressure Air Temp Water Temp Dewpoint Dewpoint Depression Visibility Wind Speed Wind Dir Waves Ship Positions

Tancred

Last reported at 2014-Oct-20 20:32 UTC. Time now 2014-Oct-26 04:23 UTC.
Position N 01°12' E 103°52'.

Length 190 m; draft 8.8 m.

Type: Cargo ship. MMSI: 258787000.

Date/timePositionNaut miles runAvg speedWind from/ knotsBaromVisibWave heightAir tempDewpointWater temp
2014-Oct-20 20:32N 01°12' E 103°52'6 5.0
2014-Oct-20 19:18N 01°17' E 103°55'0 0.0
2014-Oct-20 18:33N 01°17' E 103°55'0 0.0
2014-Oct-20 17:30N 01°17' E 103°55'0 0.0
2014-Oct-20 16:30N 01°17' E 103°55'0 0.0
2014-Oct-20 15:30N 01°17' E 103°55'0 0.0
2014-Oct-20 14:24N 01°17' E 103°55'0 0.0
2014-Oct-20 13:33N 01°17' E 103°55'0 0.0
2014-Oct-20 12:21N 01°17' E 103°55'0 0.1
2014-Oct-20 11:30N 01°17' E 103°55'0 0.0
2014-Oct-20 10:24N 01°17' E 103°55'0 0.1
2014-Oct-20 09:24N 01°17' E 103°55'0 0.0
2014-Oct-20 08:24N 01°17' E 103°55'0 0.0
2014-Oct-20 07:33N 01°17' E 103°55'0 0.0
2014-Oct-20 06:30N 01°17' E 103°55'0 0.0
2014-Oct-20 05:30N 01°17' E 103°55'0 0.0
2014-Oct-20 04:21N 01°17' E 103°55'0 0.0
2014-Oct-20 03:24N 01°17' E 103°55'0 0.0
2014-Oct-20 02:33N 01°17' E 103°55'0 0.0
2014-Oct-20 01:18N 01°17' E 103°55'0 0.0
2014-Oct-20 00:15N 01°17' E 103°55'0 0.0
2014-Oct-19 23:18N 01°17' E 103°55'0 0.0
2014-Oct-19 22:28N 01°17' E 103°55'2 2.5
2014-Oct-19 21:33N 01°15' E 103°57'8 7.3
2014-Oct-19 20:31N 01°16' E 104°05'  
2014-Oct-11 12:10N 34°58' E 139°41'813.3
2014-Oct-11 11:33N 35°06' E 139°44'9 8.6
2014-Oct-11 10:33N 35°14' E 139°46'1211.8
2014-Oct-11 09:33N 35°26' E 139°43'2 2.0
2014-Oct-11 08:32N 35°27' E 139°41'0 0.0
2014-Oct-11 07:32N 35°27' E 139°41'0 0.0
2014-Oct-11 06:32N 35°27' E 139°41'0 0.0
2014-Oct-11 05:32N 35°27' E 139°41'0 0.0
2014-Oct-11 04:32N 35°27' E 139°41'0 0.0
2014-Oct-11 03:32N 35°27' E 139°41'0 0.0
2014-Oct-11 02:32N 35°27' E 139°41'0 0.0
2014-Oct-11 01:32N 35°27' E 139°41'0 0.0
2014-Oct-11 00:32N 35°27' E 139°41'0 0.0
2014-Oct-10 23:32N 35°27' E 139°41'0 0.0
2014-Oct-10 22:32N 35°27' E 139°41'3 2.9
2014-Oct-10 21:33N 35°26' E 139°44'0 0.1
2014-Oct-10 20:34N 35°26' E 139°44'  

Dump ship's entire track history